createdAt,value
2022-12-27T00:00:16.831Z,18.2
2022-12-27T00:05:17.067Z,17.9
2022-12-27T00:10:16.958Z,18.0
2022-12-27T00:15:16.876Z,17.6
2022-12-27T00:20:16.862Z,17.4
2022-12-27T00:25:16.829Z,17.4
2022-12-27T00:30:16.884Z,17.9
2022-12-27T00:35:17.018Z,17.5
2022-12-27T00:40:16.998Z,17.2
2022-12-27T00:45:17.036Z,17.5
2022-12-27T00:50:16.933Z,17.5
2022-12-27T00:55:17.014Z,17.5
2022-12-27T01:00:17.166Z,17.5
2022-12-27T01:05:17.068Z,17.8
2022-12-27T01:10:17.077Z,17.8
2022-12-27T01:15:16.941Z,17.4
2022-12-27T01:20:16.952Z,17.4
2022-12-27T01:25:17.232Z,17.4
2022-12-27T01:30:17.047Z,17.8
2022-12-27T01:35:17.015Z,17.8
2022-12-27T01:40:17.077Z,17.7
2022-12-27T01:45:17.065Z,17.6
2022-12-27T01:50:17.372Z,17.7
2022-12-27T01:55:17.281Z,17.7
2022-12-27T02:00:17.120Z,17.6
2022-12-27T02:05:17.103Z,17.6
2022-12-27T02:10:17.174Z,17.6
2022-12-27T02:15:17.201Z,17.6
2022-12-27T02:20:17.179Z,17.6
2022-12-27T02:25:17.099Z,17.9
2022-12-27T02:30:17.414Z,17.4
2022-12-27T02:35:17.148Z,17.4
2022-12-27T02:40:17.221Z,17.4
2022-12-27T02:45:17.158Z,17.8
2022-12-27T02:50:17.128Z,17.8
2022-12-27T02:55:17.216Z,17.7
2022-12-27T03:00:17.188Z,18.1
2022-12-27T03:05:17.216Z,17.6
2022-12-27T03:10:17.264Z,17.6
2022-12-27T03:15:17.419Z,17.9
2022-12-27T03:20:17.253Z,17.8
2022-12-27T03:25:17.267Z,17.7
2022-12-27T03:30:17.325Z,17.6
2022-12-27T03:35:17.690Z,17.6
2022-12-27T03:40:17.466Z,17.5
2022-12-27T03:45:17.311Z,17.2
2022-12-27T03:50:17.395Z,16.8
2022-12-27T03:55:17.418Z,17.3
2022-12-27T04:00:17.340Z,17.3
2022-12-27T04:05:17.369Z,17.7
2022-12-27T04:10:17.707Z,17.7
2022-12-27T04:15:17.439Z,17.6
2022-12-27T04:20:17.411Z,17.7
2022-12-27T04:25:15.368Z,17.7
2022-12-27T04:30:15.360Z,18.1
2022-12-27T04:35:15.379Z,18.1
2022-12-27T04:40:15.477Z,18.1
2022-12-27T04:45:15.742Z,18.1
2022-12-27T04:50:15.574Z,18.1
2022-12-27T04:55:15.635Z,17.7
2022-12-27T05:00:16.661Z,18.1
2022-12-27T05:05:16.491Z,18.2
2022-12-27T05:10:16.421Z,18.2
2022-12-27T05:15:16.728Z,18.2
2022-12-27T05:20:16.471Z,18.6
2022-12-27T05:25:16.792Z,18.2
2022-12-27T05:30:16.459Z,18.3
2022-12-27T05:35:16.517Z,18.2
2022-12-27T05:40:16.612Z,18.3
2022-12-27T05:45:16.570Z,18.4
2022-12-27T05:50:16.621Z,18.4
2022-12-27T05:55:16.502Z,18.7
2022-12-27T06:00:16.524Z,18.8
2022-12-27T06:05:16.539Z,18.8
2022-12-27T06:10:16.631Z,18.8
2022-12-27T06:15:16.687Z,18.9
2022-12-27T06:20:16.675Z,18.9
2022-12-27T06:25:16.669Z,18.9
2022-12-27T06:30:16.679Z,18.9
2022-12-27T06:35:16.655Z,19.0
2022-12-27T06:40:16.675Z,18.6
2022-12-27T06:45:16.773Z,18.5
2022-12-27T06:50:16.691Z,18.9
2022-12-27T06:55:16.683Z,18.9
2022-12-27T07:00:16.772Z,19.0
2022-12-27T07:05:16.911Z,18.5
2022-12-27T07:10:16.749Z,18.5
2022-12-27T07:15:16.849Z,18.9
2022-12-27T07:20:16.863Z,18.8
2022-12-27T07:25:16.839Z,18.9
2022-12-27T07:30:16.949Z,18.8
2022-12-27T07:35:16.856Z,18.8
2022-12-27T07:40:16.906Z,18.7
2022-12-27T07:45:16.939Z,18.7
2022-12-27T07:50:16.799Z,19.2
2022-12-27T07:55:16.845Z,19.4
2022-12-27T08:00:16.833Z,19.4
2022-12-27T08:05:18.432Z,19.4
2022-12-27T08:10:17.013Z,19.0
2022-12-27T08:15:16.939Z,19.0
2022-12-27T08:20:17.026Z,18.9
2022-12-27T08:25:17.039Z,18.8
2022-12-27T08:30:16.939Z,18.7
2022-12-27T08:35:51.125Z,18.9
2022-12-27T08:40:17.056Z,18.9
2022-12-27T08:45:17.048Z,18.6
2022-12-27T08:50:16.969Z,18.6
2022-12-27T08:55:17.007Z,19.0
2022-12-27T09:00:17.116Z,19.4
2022-12-27T09:05:17.134Z,19.5
2022-12-27T09:10:17.022Z,19.5
2022-12-27T09:15:16.986Z,19.4
2022-12-27T09:20:17.023Z,19.4
2022-12-27T09:25:17.118Z,19.0
2022-12-27T09:30:17.063Z,19.0
2022-12-27T09:35:17.078Z,19.0
2022-12-27T09:40:17.168Z,19.0
2022-12-27T09:45:17.129Z,18.9
2022-12-27T09:50:17.137Z,19.0
2022-12-27T09:55:17.198Z,18.9
2022-12-27T10:00:17.205Z,18.9
2022-12-27T10:05:20.958Z,19.3
2022-12-27T10:10:17.245Z,18.9
2022-12-27T10:15:17.328Z,19.3
2022-12-27T10:20:17.211Z,19.3
2022-12-27T10:25:17.657Z,19.2
2022-12-27T10:30:17.192Z,19.3
2022-12-27T10:35:17.298Z,19.2
2022-12-27T10:40:17.284Z,19.1
2022-12-27T10:45:17.179Z,19.0
2022-12-27T10:50:17.291Z,19.1
2022-12-27T10:55:17.410Z,19.0
2022-12-27T11:00:17.387Z,19.0
2022-12-27T11:05:17.254Z,18.6
2022-12-27T11:10:17.558Z,18.5
2022-12-27T11:15:17.303Z,18.2
2022-12-27T11:20:17.351Z,18.4
2022-12-27T11:25:17.384Z,18.4
2022-12-27T11:30:17.450Z,18.4
2022-12-27T11:35:17.419Z,18.5
2022-12-27T11:40:17.300Z,18.1
2022-12-27T11:45:17.367Z,18.4
2022-12-27T11:50:17.389Z,18.1
2022-12-27T11:55:17.455Z,18.1
2022-12-27T12:00:15.415Z,18.0
2022-12-27T12:05:15.518Z,18.0
2022-12-27T12:10:15.341Z,18.0
2022-12-27T12:15:15.391Z,18.0
2022-12-27T12:20:15.419Z,18.0
2022-12-27T12:25:15.477Z,18.1
2022-12-27T12:30:15.563Z,18.0
2022-12-27T12:35:15.674Z,18.0
2022-12-27T12:40:15.629Z,18.0
2022-12-27T12:45:15.641Z,18.1
2022-12-27T12:50:15.645Z,17.8
2022-12-27T12:55:15.521Z,18.1
2022-12-27T13:00:15.543Z,17.8
2022-12-27T13:05:15.509Z,17.8
2022-12-27T13:10:15.568Z,17.5
2022-12-27T13:15:15.599Z,17.8
2022-12-27T13:20:15.550Z,17.5
2022-12-27T13:25:15.662Z,17.8
2022-12-27T13:30:15.626Z,17.9
2022-12-27T13:35:19.951Z,17.9
2022-12-27T13:40:15.590Z,18.5
2022-12-27T13:45:15.617Z,18.1
2022-12-27T13:50:15.759Z,18.3
2022-12-27T13:55:15.581Z,18.4
2022-12-27T14:00:15.747Z,19.1
2022-12-27T14:05:15.648Z,19.2
2022-12-27T14:10:15.721Z,19.1
2022-12-27T14:15:15.680Z,19.3
2022-12-27T14:20:15.730Z,18.9
2022-12-27T14:25:15.848Z,19.0
2022-12-27T14:30:15.733Z,19.6
2022-12-27T14:35:15.878Z,19.6
2022-12-27T14:40:15.986Z,20.0
2022-12-27T14:45:15.747Z,20.2
2022-12-27T14:50:15.771Z,20.2
2022-12-27T14:55:15.769Z,19.8
2022-12-27T15:00:16.083Z,20.2
2022-12-27T15:05:15.872Z,19.9
2022-12-27T15:10:15.823Z,20.4
2022-12-27T15:15:15.961Z,20.5
2022-12-27T15:20:15.866Z,20.3
2022-12-27T15:25:15.842Z,20.5
2022-12-27T15:30:15.917Z,20.6
2022-12-27T15:35:15.880Z,21.1
2022-12-27T15:40:15.992Z,20.7
2022-12-27T15:45:15.932Z,20.4
2022-12-27T15:50:16.017Z,20.4
2022-12-27T15:55:15.902Z,20.5
2022-12-27T16:00:15.917Z,20.5
2022-12-27T16:05:16.105Z,20.6
2022-12-27T16:10:15.931Z,21.0
2022-12-27T16:15:15.993Z,21.2
2022-12-27T16:20:15.979Z,21.0
2022-12-27T16:25:16.031Z,20.6
2022-12-27T16:30:16.028Z,20.9
2022-12-27T16:35:15.964Z,21.0
2022-12-27T16:40:16.053Z,20.8
2022-12-27T16:45:16.070Z,20.9
2022-12-27T16:50:16.042Z,20.1
2022-12-27T16:55:16.018Z,20.7
2022-12-27T17:00:19.327Z,20.8
2022-12-27T17:05:16.019Z,21.3
2022-12-27T17:10:16.093Z,21.0
2022-12-27T17:15:16.086Z,20.4
2022-12-27T17:20:16.781Z,21.1
2022-12-27T17:25:16.275Z,21.2
2022-12-27T17:30:16.277Z,20.1
2022-12-27T17:35:16.110Z,21.3
2022-12-27T17:40:16.189Z,21.5
2022-12-27T17:45:16.150Z,20.8
2022-12-27T17:50:16.170Z,20.1
2022-12-27T17:55:16.355Z,19.8
2022-12-27T18:00:16.274Z,20.6
2022-12-27T18:05:16.208Z,20.1
2022-12-27T18:10:16.166Z,21.5
2022-12-27T18:15:16.272Z,21.1
2022-12-27T18:20:16.684Z,21.5
2022-12-27T18:25:16.234Z,20.3
2022-12-27T18:30:16.517Z,20.3
2022-12-27T18:35:18.541Z,20.9
2022-12-27T18:40:16.266Z,19.2
2022-12-27T18:45:16.302Z,19.8
2022-12-27T18:50:16.303Z,21.6
2022-12-27T18:55:16.311Z,21.2
2022-12-27T19:00:16.375Z,20.1
2022-12-27T19:05:16.336Z,21.7
2022-12-27T19:10:16.350Z,21.6
2022-12-27T19:15:16.515Z,20.9
2022-12-27T19:20:16.336Z,20.1
2022-12-27T19:25:16.429Z,21.3
2022-12-27T19:30:16.501Z,21.2
2022-12-27T19:35:16.452Z,20.5
2022-12-27T19:40:16.448Z,20.6
2022-12-27T19:45:16.463Z,21.1
2022-12-27T19:50:16.407Z,20.7
2022-12-27T19:55:16.363Z,21.0
2022-12-27T20:00:16.435Z,20.7
2022-12-27T20:05:16.415Z,20.2
2022-12-27T20:10:16.577Z,21.8
2022-12-27T20:15:16.592Z,22.4
2022-12-27T20:20:16.532Z,21.1
2022-12-27T20:25:16.533Z,21.0
2022-12-27T20:30:16.625Z,20.1
2022-12-27T20:35:16.644Z,21.0
2022-12-27T20:40:16.557Z,21.4
2022-12-27T20:45:16.542Z,20.9
2022-12-27T20:50:16.579Z,22.0
2022-12-27T20:55:16.578Z,21.9
2022-12-27T21:00:16.612Z,21.2
2022-12-27T21:05:16.628Z,20.7
2022-12-27T21:10:16.884Z,21.8
2022-12-27T21:15:16.669Z,21.6
2022-12-27T21:20:16.770Z,22.6
2022-12-27T21:25:16.620Z,22.2
2022-12-27T21:30:16.698Z,21.9
2022-12-27T21:35:16.689Z,21.9
2022-12-27T21:40:16.631Z,22.0
2022-12-27T21:45:16.755Z,22.1
2022-12-27T21:50:16.691Z,22.4
2022-12-27T21:55:19.815Z,22.3
2022-12-27T22:00:16.850Z,22.2
2022-12-27T22:05:16.773Z,22.1
2022-12-27T22:10:16.912Z,21.9
2022-12-27T22:15:16.894Z,21.7
2022-12-27T22:20:16.776Z,21.6
2022-12-27T22:25:16.906Z,21.5
2022-12-27T22:30:16.784Z,21.2
2022-12-27T22:35:16.795Z,21.1
2022-12-27T22:40:43.235Z,21.4
2022-12-27T22:45:16.835Z,21.4
2022-12-27T22:50:16.969Z,21.3
2022-12-27T22:55:16.872Z,20.8
2022-12-27T23:00:16.803Z,20.7
2022-12-27T23:05:16.854Z,20.9
2022-12-27T23:10:16.895Z,21.4
2022-12-27T23:15:16.993Z,21.3
2022-12-27T23:20:17.058Z,21.5
2022-12-27T23:25:16.931Z,21.3
2022-12-27T23:30:16.910Z,21.4
2022-12-27T23:35:16.932Z,21.2
2022-12-27T23:40:17.249Z,20.9
2022-12-27T23:45:16.971Z,21.1
2022-12-27T23:50:20.847Z,21.3
2022-12-27T23:55:17.189Z,21.2
